sensor_id;sensor_type;location;lat;lon;timestamp;P1;durP1;ratioP1;P2;durP2;ratioP2
62523;SDS011;53689;56.878;60.672;2024-01-30T00:00:57;12.75;;;9.40;;
62523;SDS011;53689;56.878;60.672;2024-01-30T00:03:25;13.00;;;8.38;;
62523;SDS011;53689;56.878;60.672;2024-01-30T00:05:53;15.05;;;9.60;;
62523;SDS011;53689;56.878;60.672;2024-01-30T00:08:26;15.10;;;9.07;;
62523;SDS011;53689;56.878;60.672;2024-01-30T00:10:55;12.18;;;8.63;;
62523;SDS011;53689;56.878;60.672;2024-01-30T00:13:23;12.50;;;8.85;;
62523;SDS011;53689;56.878;60.672;2024-01-30T00:15:51;12.30;;;8.43;;
62523;SDS011;53689;56.878;60.672;2024-01-30T00:18:19;11.15;;;8.25;;
62523;SDS011;53689;56.878;60.672;2024-01-30T00:20:46;11.18;;;8.35;;
62523;SDS011;53689;56.878;60.672;2024-01-30T00:23:14;13.15;;;9.80;;
62523;SDS011;53689;56.878;60.672;2024-01-30T00:25:42;12.20;;;8.25;;
62523;SDS011;53689;56.878;60.672;2024-01-30T00:28:12;11.57;;;8.40;;
62523;SDS011;53689;56.878;60.672;2024-01-30T00:30:39;13.43;;;8.93;;
62523;SDS011;53689;56.878;60.672;2024-01-30T00:33:07;11.32;;;8.18;;
62523;SDS011;53689;56.878;60.672;2024-01-30T00:35:36;13.23;;;9.45;;
62523;SDS011;53689;56.878;60.672;2024-01-30T00:38:03;11.65;;;8.45;;
62523;SDS011;53689;56.878;60.672;2024-01-30T00:40:31;13.57;;;9.55;;
62523;SDS011;53689;56.878;60.672;2024-01-30T00:42:59;11.77;;;8.38;;
62523;SDS011;53689;56.878;60.672;2024-01-30T00:45:29;13.00;;;8.70;;
62523;SDS011;53689;56.878;60.672;2024-01-30T00:47:57;11.52;;;8.27;;
62523;SDS011;53689;56.878;60.672;2024-01-30T00:50:25;13.20;;;8.93;;
62523;SDS011;53689;56.878;60.672;2024-01-30T00:52:53;13.63;;;9.20;;
62523;SDS011;53689;56.878;60.672;2024-01-30T00:55:21;12.32;;;8.75;;
62523;SDS011;53689;56.878;60.672;2024-01-30T00:57:49;13.45;;;8.38;;
62523;SDS011;53689;56.878;60.672;2024-01-30T01:00:17;14.13;;;8.90;;
62523;SDS011;53689;56.878;60.672;2024-01-30T01:02:48;12.43;;;8.80;;
62523;SDS011;53689;56.878;60.672;2024-01-30T01:05:16;11.25;;;8.18;;
62523;SDS011;53689;56.878;60.672;2024-01-30T01:07:44;11.02;;;7.90;;
62523;SDS011;53689;56.878;60.672;2024-01-30T01:10:12;12.52;;;7.90;;
62523;SDS011;53689;56.878;60.672;2024-01-30T01:12:41;12.35;;;8.85;;
62523;SDS011;53689;56.878;60.672;2024-01-30T01:15:09;10.35;;;7.15;;
62523;SDS011;53689;56.878;60.672;2024-01-30T01:17:38;11.20;;;8.40;;
62523;SDS011;53689;56.878;60.672;2024-01-30T01:20:08;11.38;;;7.90;;
62523;SDS011;53689;56.878;60.672;2024-01-30T01:22:36;12.20;;;7.85;;
62523;SDS011;53689;56.878;60.672;2024-01-30T01:25:05;13.25;;;8.35;;
62523;SDS011;53689;56.878;60.672;2024-01-30T01:27:33;12.87;;;9.13;;
62523;SDS011;53689;56.878;60.672;2024-01-30T01:30:01;12.48;;;8.77;;
62523;SDS011;53689;56.878;60.672;2024-01-30T01:32:30;11.50;;;8.18;;
62523;SDS011;53689;56.878;60.672;2024-01-30T01:34:58;14.48;;;8.30;;
62523;SDS011;53689;56.878;60.672;2024-01-30T01:37:28;13.73;;;8.30;;
62523;SDS011;53689;56.878;60.672;2024-01-30T01:39:56;12.68;;;8.13;;
62523;SDS011;53689;56.878;60.672;2024-01-30T01:42:24;12.50;;;8.13;;
62523;SDS011;53689;56.878;60.672;2024-01-30T01:44:52;13.32;;;8.55;;
62523;SDS011;53689;56.878;60.672;2024-01-30T01:47:20;11.30;;;7.57;;
62523;SDS011;53689;56.878;60.672;2024-01-30T01:49:48;13.05;;;8.32;;
62523;SDS011;53689;56.878;60.672;2024-01-30T01:52:17;13.02;;;7.80;;
62523;SDS011;53689;56.878;60.672;2024-01-30T01:54:46;14.10;;;7.95;;
62523;SDS011;53689;56.878;60.672;2024-01-30T01:57:14;12.32;;;8.40;;
62523;SDS011;53689;56.878;60.672;2024-01-30T01:59:42;13.07;;;8.48;;
62523;SDS011;53689;56.878;60.672;2024-01-30T02:02:10;13.00;;;8.43;;
62523;SDS011;53689;56.878;60.672;2024-01-30T02:04:40;13.25;;;8.52;;
62523;SDS011;53689;56.878;60.672;2024-01-30T02:07:08;11.60;;;7.50;;
62523;SDS011;53689;56.878;60.672;2024-01-30T02:09:37;12.25;;;7.95;;
62523;SDS011;53689;56.878;60.672;2024-01-30T02:12:07;11.45;;;8.25;;
62523;SDS011;53689;56.878;60.672;2024-01-30T02:17:11;14.18;;;8.27;;
62523;SDS011;53689;56.878;60.672;2024-01-30T02:19:39;10.85;;;7.53;;
62523;SDS011;53689;56.878;60.672;2024-01-30T02:22:08;15.52;;;10.02;;
62523;SDS011;53689;56.878;60.672;2024-01-30T02:24:37;13.57;;;8.05;;
62523;SDS011;53689;56.878;60.672;2024-01-30T02:27:05;14.50;;;8.85;;
62523;SDS011;53689;56.878;60.672;2024-01-30T02:29:33;13.35;;;9.50;;
62523;SDS011;53689;56.878;60.672;2024-01-30T02:32:01;13.27;;;9.30;;
62523;SDS011;53689;56.878;60.672;2024-01-30T02:34:29;13.30;;;8.73;;
62523;SDS011;53689;56.878;60.672;2024-01-30T02:36:58;12.57;;;8.88;;
62523;SDS011;53689;56.878;60.672;2024-01-30T02:39:27;12.50;;;8.77;;
62523;SDS011;53689;56.878;60.672;2024-01-30T02:41:55;14.40;;;9.57;;
62523;SDS011;53689;56.878;60.672;2024-01-30T02:44:24;12.93;;;9.55;;
62523;SDS011;53689;56.878;60.672;2024-01-30T02:46:52;14.13;;;9.02;;
62523;SDS011;53689;56.878;60.672;2024-01-30T02:49:19;13.25;;;10.60;;
62523;SDS011;53689;56.878;60.672;2024-01-30T02:51:48;14.77;;;10.82;;
62523;SDS011;53689;56.878;60.672;2024-01-30T02:54:17;15.52;;;11.43;;
62523;SDS011;53689;56.878;60.672;2024-01-30T02:56:46;13.25;;;10.20;;
62523;SDS011;53689;56.878;60.672;2024-01-30T02:59:14;15.38;;;9.23;;
62523;SDS011;53689;56.878;60.672;2024-01-30T03:01:43;14.32;;;10.43;;
62523;SDS011;53689;56.878;60.672;2024-01-30T03:04:11;15.88;;;11.73;;
62523;SDS011;53689;56.878;60.672;2024-01-30T03:06:44;12.60;;;9.35;;
62523;SDS011;53689;56.878;60.672;2024-01-30T03:09:12;15.23;;;10.98;;
62523;SDS011;53689;56.878;60.672;2024-01-30T03:11:40;13.25;;;10.55;;
62523;SDS011;53689;56.878;60.672;2024-01-30T03:14:09;13.52;;;9.15;;
62523;SDS011;53689;56.878;60.672;2024-01-30T03:16:37;17.08;;;12.52;;
62523;SDS011;53689;56.878;60.672;2024-01-30T03:19:06;12.85;;;10.27;;
62523;SDS011;53689;56.878;60.672;2024-01-30T03:21:34;14.17;;;11.27;;
62523;SDS011;53689;56.878;60.672;2024-01-30T03:24:02;14.20;;;11.15;;
62523;SDS011;53689;56.878;60.672;2024-01-30T03:26:30;14.18;;;11.20;;
62523;SDS011;53689;56.878;60.672;2024-01-30T03:28:58;13.48;;;11.43;;
62523;SDS011;53689;56.878;60.672;2024-01-30T03:31:28;17.48;;;12.60;;
62523;SDS011;53689;56.878;60.672;2024-01-30T03:33:55;15.18;;;11.77;;
62523;SDS011;53689;56.878;60.672;2024-01-30T03:36:24;13.95;;;11.00;;
62523;SDS011;53689;56.878;60.672;2024-01-30T03:38:52;14.55;;;11.40;;
62523;SDS011;53689;56.878;60.672;2024-01-30T03:41:19;16.08;;;14.02;;
62523;SDS011;53689;56.878;60.672;2024-01-30T03:43:47;15.30;;;11.63;;
62523;SDS011;53689;56.878;60.672;2024-01-30T03:46:15;17.58;;;13.10;;
62523;SDS011;53689;56.878;60.672;2024-01-30T03:48:45;16.58;;;13.60;;
62523;SDS011;53689;56.878;60.672;2024-01-30T03:51:13;15.77;;;11.48;;
62523;SDS011;53689;56.878;60.672;2024-01-30T03:53:41;15.65;;;12.68;;
62523;SDS011;53689;56.878;60.672;2024-01-30T03:56:09;13.75;;;11.82;;
62523;SDS011;53689;56.878;60.672;2024-01-30T03:58:37;15.32;;;12.50;;
62523;SDS011;53689;56.878;60.672;2024-01-30T04:01:05;15.45;;;12.43;;
62523;SDS011;53689;56.878;60.672;2024-01-30T04:03:33;14.13;;;12.45;;
62523;SDS011;53689;56.878;60.672;2024-01-30T04:06:03;16.27;;;11.80;;
62523;SDS011;53689;56.878;60.672;2024-01-30T04:08:31;18.25;;;14.73;;
62523;SDS011;53689;56.878;60.672;2024-01-30T04:11:02;16.70;;;12.93;;
62523;SDS011;53689;56.878;60.672;2024-01-30T04:13:30;16.90;;;12.80;;
62523;SDS011;53689;56.878;60.672;2024-01-30T04:15:59;15.20;;;11.98;;
62523;SDS011;53689;56.878;60.672;2024-01-30T04:18:27;18.10;;;13.00;;
62523;SDS011;53689;56.878;60.672;2024-01-30T04:20:55;17.45;;;13.10;;
62523;SDS011;53689;56.878;60.672;2024-01-30T04:23:24;17.13;;;12.35;;
62523;SDS011;53689;56.878;60.672;2024-01-30T04:25:52;17.45;;;12.52;;
62523;SDS011;53689;56.878;60.672;2024-01-30T04:28:20;16.13;;;11.23;;
62523;SDS011;53689;56.878;60.672;2024-01-30T04:30:49;17.10;;;12.45;;
62523;SDS011;53689;56.878;60.672;2024-01-30T04:33:17;19.40;;;12.32;;
62523;SDS011;53689;56.878;60.672;2024-01-30T04:35:45;21.00;;;12.45;;
62523;SDS011;53689;56.878;60.672;2024-01-30T04:38:13;21.55;;;12.40;;
62523;SDS011;53689;56.878;60.672;2024-01-30T04:40:43;20.40;;;12.60;;
62523;SDS011;53689;56.878;60.672;2024-01-30T04:43:11;21.80;;;13.05;;
62523;SDS011;53689;56.878;60.672;2024-01-30T04:45:38;25.30;;;14.65;;
62523;SDS011;53689;56.878;60.672;2024-01-30T04:48:07;19.92;;;12.40;;
62523;SDS011;53689;56.878;60.672;2024-01-30T04:50:35;22.95;;;13.02;;
62523;SDS011;53689;56.878;60.672;2024-01-30T04:53:03;24.95;;;14.23;;
62523;SDS011;53689;56.878;60.672;2024-01-30T04:55:31;20.15;;;13.95;;
62523;SDS011;53689;56.878;60.672;2024-01-30T04:58:00;16.63;;;11.82;;
62523;SDS011;53689;56.878;60.672;2024-01-30T05:00:28;20.60;;;13.27;;
62523;SDS011;53689;56.878;60.672;2024-01-30T05:02:56;24.02;;;15.15;;
62523;SDS011;53689;56.878;60.672;2024-01-30T05:05:24;19.95;;;11.77;;
62523;SDS011;53689;56.878;60.672;2024-01-30T05:07:51;23.80;;;15.27;;
62523;SDS011;53689;56.878;60.672;2024-01-30T05:10:19;17.25;;;10.98;;
62523;SDS011;53689;56.878;60.672;2024-01-30T05:12:48;19.27;;;11.25;;
62523;SDS011;53689;56.878;60.672;2024-01-30T05:15:17;17.95;;;10.82;;
62523;SDS011;53689;56.878;60.672;2024-01-30T05:17:45;18.27;;;10.63;;
62523;SDS011;53689;56.878;60.672;2024-01-30T05:20:13;15.65;;;10.23;;
62523;SDS011;53689;56.878;60.672;2024-01-30T05:22:41;18.60;;;11.23;;
62523;SDS011;53689;56.878;60.672;2024-01-30T05:25:08;20.38;;;13.38;;
62523;SDS011;53689;56.878;60.672;2024-01-30T05:27:37;28.55;;;15.93;;
62523;SDS011;53689;56.878;60.672;2024-01-30T05:30:06;17.25;;;11.93;;
62523;SDS011;53689;56.878;60.672;2024-01-30T05:32:36;22.40;;;13.13;;
62523;SDS011;53689;56.878;60.672;2024-01-30T05:35:04;23.25;;;13.98;;
62523;SDS011;53689;56.878;60.672;2024-01-30T05:37:32;20.33;;;13.02;;
62523;SDS011;53689;56.878;60.672;2024-01-30T05:40:01;23.95;;;14.25;;
62523;SDS011;53689;56.878;60.672;2024-01-30T05:42:29;21.73;;;13.90;;
62523;SDS011;53689;56.878;60.672;2024-01-30T05:44:56;28.98;;;15.68;;
62523;SDS011;53689;56.878;60.672;2024-01-30T05:47:24;27.50;;;15.45;;
62523;SDS011;53689;56.878;60.672;2024-01-30T05:49:54;27.10;;;14.50;;
62523;SDS011;53689;56.878;60.672;2024-01-30T05:52:22;20.05;;;13.30;;
62523;SDS011;53689;56.878;60.672;2024-01-30T05:54:50;21.05;;;13.07;;
62523;SDS011;53689;56.878;60.672;2024-01-30T05:57:18;24.65;;;14.50;;
62523;SDS011;53689;56.878;60.672;2024-01-30T05:59:46;26.13;;;14.75;;
62523;SDS011;53689;56.878;60.672;2024-01-30T06:02:14;24.20;;;15.98;;
62523;SDS011;53689;56.878;60.672;2024-01-30T06:04:42;34.08;;;25.33;;
62523;SDS011;53689;56.878;60.672;2024-01-30T06:07:11;32.00;;;18.98;;
62523;SDS011;53689;56.878;60.672;2024-01-30T06:12:07;30.92;;;20.17;;
62523;SDS011;53689;56.878;60.672;2024-01-30T06:14:35;28.83;;;18.67;;
62523;SDS011;53689;56.878;60.672;2024-01-30T06:17:03;30.30;;;17.88;;
62523;SDS011;53689;56.878;60.672;2024-01-30T06:19:31;25.85;;;17.60;;
62523;SDS011;53689;56.878;60.672;2024-01-30T06:21:59;28.25;;;17.65;;
62523;SDS011;53689;56.878;60.672;2024-01-30T06:24:28;31.58;;;18.40;;
62523;SDS011;53689;56.878;60.672;2024-01-30T06:26:56;34.83;;;19.27;;
62523;SDS011;53689;56.878;60.672;2024-01-30T06:29:24;33.58;;;20.33;;
62523;SDS011;53689;56.878;60.672;2024-01-30T06:31:52;29.00;;;18.25;;
62523;SDS011;53689;56.878;60.672;2024-01-30T06:34:21;31.70;;;20.25;;
62523;SDS011;53689;56.878;60.672;2024-01-30T06:36:49;32.33;;;19.88;;
62523;SDS011;53689;56.878;60.672;2024-01-30T06:39:17;34.42;;;18.77;;
62523;SDS011;53689;56.878;60.672;2024-01-30T06:41:46;28.70;;;17.83;;
62523;SDS011;53689;56.878;60.672;2024-01-30T06:44:14;32.22;;;18.95;;
62523;SDS011;53689;56.878;60.672;2024-01-30T06:46:43;32.47;;;18.50;;
62523;SDS011;53689;56.878;60.672;2024-01-30T06:49:11;25.75;;;16.38;;
62523;SDS011;53689;56.878;60.672;2024-01-30T06:51:38;28.90;;;16.13;;
62523;SDS011;53689;56.878;60.672;2024-01-30T06:54:07;29.15;;;19.20;;
62523;SDS011;53689;56.878;60.672;2024-01-30T06:56:35;79.88;;;68.38;;
62523;SDS011;53689;56.878;60.672;2024-01-30T06:59:04;268.33;;;225.68;;
62523;SDS011;53689;56.878;60.672;2024-01-30T07:01:32;88.18;;;67.68;;
62523;SDS011;53689;56.878;60.672;2024-01-30T07:04:00;64.28;;;45.05;;
62523;SDS011;53689;56.878;60.672;2024-01-30T07:06:28;45.97;;;34.25;;
62523;SDS011;53689;56.878;60.672;2024-01-30T07:08:56;46.75;;;32.15;;
62523;SDS011;53689;56.878;60.672;2024-01-30T07:11:24;42.58;;;27.45;;
62523;SDS011;53689;56.878;60.672;2024-01-30T07:13:52;36.53;;;24.20;;
62523;SDS011;53689;56.878;60.672;2024-01-30T07:16:23;35.65;;;22.30;;
62523;SDS011;53689;56.878;60.672;2024-01-30T07:21:18;33.53;;;19.88;;
62523;SDS011;53689;56.878;60.672;2024-01-30T07:23:46;39.70;;;25.35;;
62523;SDS011;53689;56.878;60.672;2024-01-30T07:26:14;123.95;;;96.00;;
62523;SDS011;53689;56.878;60.672;2024-01-30T07:28:42;81.75;;;57.83;;
62523;SDS011;53689;56.878;60.672;2024-01-30T07:31:09;69.25;;;45.55;;
62523;SDS011;53689;56.878;60.672;2024-01-30T07:33:39;47.78;;;29.65;;
62523;SDS011;53689;56.878;60.672;2024-01-30T07:36:06;46.67;;;31.40;;
62523;SDS011;53689;56.878;60.672;2024-01-30T07:38:34;36.50;;;22.63;;
62523;SDS011;53689;56.878;60.672;2024-01-30T07:41:02;48.38;;;27.02;;
62523;SDS011;53689;56.878;60.672;2024-01-30T07:43:30;37.00;;;20.58;;
62523;SDS011;53689;56.878;60.672;2024-01-30T07:45:58;37.85;;;20.02;;
62523;SDS011;53689;56.878;60.672;2024-01-30T07:48:26;47.40;;;23.60;;
62523;SDS011;53689;56.878;60.672;2024-01-30T07:50:55;43.25;;;23.10;;
62523;SDS011;53689;56.878;60.672;2024-01-30T07:53:23;55.47;;;23.20;;
62523;SDS011;53689;56.878;60.672;2024-01-30T07:56:20;42.97;;;19.42;;
62523;SDS011;53689;56.878;60.672;2024-01-30T07:58:44;43.13;;;24.80;;
62523;SDS011;53689;56.878;60.672;2024-01-30T08:01:14;58.60;;;32.80;;
62523;SDS011;53689;56.878;60.672;2024-01-30T08:03:42;92.72;;;65.15;;
62523;SDS011;53689;56.878;60.672;2024-01-30T08:06:11;57.08;;;32.25;;
62523;SDS011;53689;56.878;60.672;2024-01-30T08:08:39;54.80;;;29.42;;
62523;SDS011;53689;56.878;60.672;2024-01-30T08:11:07;43.80;;;23.05;;
62523;SDS011;53689;56.878;60.672;2024-01-30T08:13:35;94.63;;;63.88;;
62523;SDS011;53689;56.878;60.672;2024-01-30T08:16:03;54.20;;;31.58;;
62523;SDS011;53689;56.878;60.672;2024-01-30T08:18:32;48.93;;;26.17;;
62523;SDS011;53689;56.878;60.672;2024-01-30T08:21:00;49.78;;;23.30;;
62523;SDS011;53689;56.878;60.672;2024-01-30T08:23:29;35.55;;;20.23;;
62523;SDS011;53689;56.878;60.672;2024-01-30T08:25:57;50.13;;;23.65;;
62523;SDS011;53689;56.878;60.672;2024-01-30T08:28:25;42.10;;;19.95;;
62523;SDS011;53689;56.878;60.672;2024-01-30T08:30:52;38.88;;;20.65;;
62523;SDS011;53689;56.878;60.672;2024-01-30T08:33:20;35.95;;;20.20;;
62523;SDS011;53689;56.878;60.672;2024-01-30T08:35:48;55.15;;;33.28;;
62523;SDS011;53689;56.878;60.672;2024-01-30T08:38:16;85.50;;;71.07;;
62523;SDS011;53689;56.878;60.672;2024-01-30T08:40:45;48.35;;;29.35;;
62523;SDS011;53689;56.878;60.672;2024-01-30T08:43:13;41.65;;;23.20;;
62523;SDS011;53689;56.878;60.672;2024-01-30T08:45:41;40.05;;;21.70;;
62523;SDS011;53689;56.878;60.672;2024-01-30T08:48:09;33.13;;;19.23;;
62523;SDS011;53689;56.878;60.672;2024-01-30T08:50:37;36.83;;;19.58;;
62523;SDS011;53689;56.878;60.672;2024-01-30T08:53:05;34.03;;;20.10;;
62523;SDS011;53689;56.878;60.672;2024-01-30T08:55:34;33.13;;;18.67;;
62523;SDS011;53689;56.878;60.672;2024-01-30T08:58:03;39.13;;;20.10;;
62523;SDS011;53689;56.878;60.672;2024-01-30T09:00:31;34.58;;;19.20;;
62523;SDS011;53689;56.878;60.672;2024-01-30T09:02:59;33.03;;;18.85;;
62523;SDS011;53689;56.878;60.672;2024-01-30T09:05:27;35.47;;;19.27;;
62523;SDS011;53689;56.878;60.672;2024-01-30T09:07:55;34.70;;;19.08;;
62523;SDS011;53689;56.878;60.672;2024-01-30T09:10:23;38.85;;;21.45;;
62523;SDS011;53689;56.878;60.672;2024-01-30T09:12:51;35.78;;;20.05;;
62523;SDS011;53689;56.878;60.672;2024-01-30T09:15:21;32.50;;;19.27;;
62523;SDS011;53689;56.878;60.672;2024-01-30T09:17:52;31.02;;;19.08;;
62523;SDS011;53689;56.878;60.672;2024-01-30T09:20:20;27.27;;;17.92;;
62523;SDS011;53689;56.878;60.672;2024-01-30T09:22:48;33.05;;;18.75;;
62523;SDS011;53689;56.878;60.672;2024-01-30T09:25:15;37.00;;;20.88;;
62523;SDS011;53689;56.878;60.672;2024-01-30T09:27:43;30.15;;;17.08;;
62523;SDS011;53689;56.878;60.672;2024-01-30T09:30:12;38.97;;;20.35;;
62523;SDS011;53689;56.878;60.672;2024-01-30T09:32:41;31.58;;;19.10;;
62523;SDS011;53689;56.878;60.672;2024-01-30T09:35:10;36.53;;;18.50;;
62523;SDS011;53689;56.878;60.672;2024-01-30T09:37:38;32.95;;;19.65;;
62523;SDS011;53689;56.878;60.672;2024-01-30T09:40:07;33.10;;;19.17;;
62523;SDS011;53689;56.878;60.672;2024-01-30T09:42:36;44.75;;;21.02;;
62523;SDS011;53689;56.878;60.672;2024-01-30T09:45:04;37.92;;;20.02;;
62523;SDS011;53689;56.878;60.672;2024-01-30T09:47:35;41.30;;;18.95;;
62523;SDS011;53689;56.878;60.672;2024-01-30T09:50:09;33.30;;;18.05;;
62523;SDS011;53689;56.878;60.672;2024-01-30T09:52:38;36.60;;;17.60;;
62523;SDS011;53689;56.878;60.672;2024-01-30T09:55:06;34.65;;;18.23;;
62523;SDS011;53689;56.878;60.672;2024-01-30T09:57:35;35.27;;;18.20;;
62523;SDS011;53689;56.878;60.672;2024-01-30T10:00:03;43.85;;;19.90;;
62523;SDS011;53689;56.878;60.672;2024-01-30T10:02:38;38.55;;;18.55;;
62523;SDS011;53689;56.878;60.672;2024-01-30T10:05:07;46.28;;;25.90;;
62523;SDS011;53689;56.878;60.672;2024-01-30T10:07:38;36.17;;;20.30;;
62523;SDS011;53689;56.878;60.672;2024-01-30T10:10:16;39.25;;;20.55;;
62523;SDS011;53689;56.878;60.672;2024-01-30T10:12:44;36.53;;;19.30;;
62523;SDS011;53689;56.878;60.672;2024-01-30T10:15:12;33.75;;;18.20;;
62523;SDS011;53689;56.878;60.672;2024-01-30T10:17:41;34.17;;;18.50;;
62523;SDS011;53689;56.878;60.672;2024-01-30T10:20:11;37.92;;;20.52;;
62523;SDS011;53689;56.878;60.672;2024-01-30T10:22:40;34.78;;;19.83;;
62523;SDS011;53689;56.878;60.672;2024-01-30T10:25:09;43.92;;;22.55;;
62523;SDS011;53689;56.878;60.672;2024-01-30T10:27:39;37.40;;;19.70;;
62523;SDS011;53689;56.878;60.672;2024-01-30T10:30:07;37.72;;;19.70;;
62523;SDS011;53689;56.878;60.672;2024-01-30T10:32:36;32.45;;;18.85;;
62523;SDS011;53689;56.878;60.672;2024-01-30T10:35:03;34.95;;;17.58;;
62523;SDS011;53689;56.878;60.672;2024-01-30T10:37:33;37.83;;;18.15;;
62523;SDS011;53689;56.878;60.672;2024-01-30T10:40:02;39.80;;;19.42;;
62523;SDS011;53689;56.878;60.672;2024-01-30T10:42:31;41.05;;;19.67;;
62523;SDS011;53689;56.878;60.672;2024-01-30T10:45:00;40.30;;;19.30;;
62523;SDS011;53689;56.878;60.672;2024-01-30T10:47:33;38.03;;;17.25;;
62523;SDS011;53689;56.878;60.672;2024-01-30T10:50:02;35.45;;;18.40;;
62523;SDS011;53689;56.878;60.672;2024-01-30T10:52:30;33.85;;;18.35;;
62523;SDS011;53689;56.878;60.672;2024-01-30T10:55:01;42.08;;;19.98;;
62523;SDS011;53689;56.878;60.672;2024-01-30T10:57:31;39.63;;;21.90;;
62523;SDS011;53689;56.878;60.672;2024-01-30T11:00:02;37.42;;;18.88;;
62523;SDS011;53689;56.878;60.672;2024-01-30T11:02:32;36.85;;;18.02;;
62523;SDS011;53689;56.878;60.672;2024-01-30T11:05:00;37.13;;;19.60;;
62523;SDS011;53689;56.878;60.672;2024-01-30T11:07:29;34.72;;;17.38;;
62523;SDS011;53689;56.878;60.672;2024-01-30T11:10:01;33.92;;;16.70;;
62523;SDS011;53689;56.878;60.672;2024-01-30T11:12:31;34.63;;;18.25;;
62523;SDS011;53689;56.878;60.672;2024-01-30T11:15:04;42.60;;;23.27;;
62523;SDS011;53689;56.878;60.672;2024-01-30T11:17:42;33.45;;;18.90;;
62523;SDS011;53689;56.878;60.672;2024-01-30T11:20:11;33.28;;;20.60;;
62523;SDS011;53689;56.878;60.672;2024-01-30T11:22:42;39.20;;;25.10;;
62523;SDS011;53689;56.878;60.672;2024-01-30T11:25:14;37.78;;;21.20;;
62523;SDS011;53689;56.878;60.672;2024-01-30T11:27:43;36.38;;;21.08;;
62523;SDS011;53689;56.878;60.672;2024-01-30T11:30:20;36.72;;;20.58;;
62523;SDS011;53689;56.878;60.672;2024-01-30T11:32:57;33.13;;;19.33;;
62523;SDS011;53689;56.878;60.672;2024-01-30T11:35:30;33.50;;;19.75;;
62523;SDS011;53689;56.878;60.672;2024-01-30T11:38:00;36.10;;;20.45;;
62523;SDS011;53689;56.878;60.672;2024-01-30T11:40:30;31.75;;;19.33;;
62523;SDS011;53689;56.878;60.672;2024-01-30T11:42:59;39.92;;;21.45;;
62523;SDS011;53689;56.878;60.672;2024-01-30T11:47:56;34.15;;;22.13;;
62523;SDS011;53689;56.878;60.672;2024-01-30T11:50:26;34.67;;;20.40;;
62523;SDS011;53689;56.878;60.672;2024-01-30T11:52:54;29.35;;;20.63;;
62523;SDS011;53689;56.878;60.672;2024-01-30T11:55:23;34.35;;;18.92;;
62523;SDS011;53689;56.878;60.672;2024-01-30T11:57:56;31.38;;;18.48;;
62523;SDS011;53689;56.878;60.672;2024-01-30T12:00:25;32.95;;;18.48;;
62523;SDS011;53689;56.878;60.672;2024-01-30T12:02:53;27.13;;;18.17;;
62523;SDS011;53689;56.878;60.672;2024-01-30T12:05:22;24.50;;;17.85;;
62523;SDS011;53689;56.878;60.672;2024-01-30T12:07:51;26.45;;;16.95;;
62523;SDS011;53689;56.878;60.672;2024-01-30T12:10:19;26.52;;;16.83;;
62523;SDS011;53689;56.878;60.672;2024-01-30T12:12:49;29.33;;;17.00;;
62523;SDS011;53689;56.878;60.672;2024-01-30T12:15:20;25.07;;;15.93;;
62523;SDS011;53689;56.878;60.672;2024-01-30T12:17:49;26.83;;;15.82;;
62523;SDS011;53689;56.878;60.672;2024-01-30T12:20:18;27.80;;;14.55;;
62523;SDS011;53689;56.878;60.672;2024-01-30T12:22:47;24.30;;;13.90;;
62523;SDS011;53689;56.878;60.672;2024-01-30T12:25:16;21.07;;;12.77;;
62523;SDS011;53689;56.878;60.672;2024-01-30T12:27:45;23.80;;;13.90;;
62523;SDS011;53689;56.878;60.672;2024-01-30T12:30:14;20.90;;;13.38;;
62523;SDS011;53689;56.878;60.672;2024-01-30T12:32:44;21.08;;;13.68;;
62523;SDS011;53689;56.878;60.672;2024-01-30T12:35:14;22.52;;;13.35;;
62523;SDS011;53689;56.878;60.672;2024-01-30T12:37:43;21.02;;;13.05;;
62523;SDS011;53689;56.878;60.672;2024-01-30T12:40:11;19.47;;;12.67;;
62523;SDS011;53689;56.878;60.672;2024-01-30T12:45:08;22.77;;;13.75;;
62523;SDS011;53689;56.878;60.672;2024-01-30T12:47:37;22.83;;;13.82;;
62523;SDS011;53689;56.878;60.672;2024-01-30T12:50:06;22.45;;;12.77;;
62523;SDS011;53689;56.878;60.672;2024-01-30T12:55:02;19.30;;;12.00;;
62523;SDS011;53689;56.878;60.672;2024-01-30T12:57:31;19.13;;;11.88;;
62523;SDS011;53689;56.878;60.672;2024-01-30T13:00:00;21.50;;;12.90;;
62523;SDS011;53689;56.878;60.672;2024-01-30T13:02:28;19.38;;;12.45;;
62523;SDS011;53689;56.878;60.672;2024-01-30T13:04:55;18.15;;;11.57;;
62523;SDS011;53689;56.878;60.672;2024-01-30T13:07:25;19.38;;;11.55;;
62523;SDS011;53689;56.878;60.672;2024-01-30T13:09:53;21.73;;;12.10;;
62523;SDS011;53689;56.878;60.672;2024-01-30T13:12:21;20.85;;;12.35;;
62523;SDS011;53689;56.878;60.672;2024-01-30T13:14:49;19.83;;;12.18;;
62523;SDS011;53689;56.878;60.672;2024-01-30T13:17:17;23.92;;;13.05;;
62523;SDS011;53689;56.878;60.672;2024-01-30T13:19:44;21.33;;;13.30;;
62523;SDS011;53689;56.878;60.672;2024-01-30T13:22:12;22.13;;;13.50;;
62523;SDS011;53689;56.878;60.672;2024-01-30T13:24:42;21.30;;;12.35;;
62523;SDS011;53689;56.878;60.672;2024-01-30T13:27:09;19.45;;;12.07;;
62523;SDS011;53689;56.878;60.672;2024-01-30T13:29:37;29.17;;;16.08;;
62523;SDS011;53689;56.878;60.672;2024-01-30T13:32:05;25.65;;;13.95;;
62523;SDS011;53689;56.878;60.672;2024-01-30T13:34:33;42.50;;;20.42;;
62523;SDS011;53689;56.878;60.672;2024-01-30T13:37:01;54.78;;;36.92;;
62523;SDS011;53689;56.878;60.672;2024-01-30T13:39:29;30.05;;;16.38;;
62523;SDS011;53689;56.878;60.672;2024-01-30T13:42:05;23.38;;;12.55;;
62523;SDS011;53689;56.878;60.672;2024-01-30T13:44:34;25.85;;;12.93;;
62523;SDS011;53689;56.878;60.672;2024-01-30T13:47:02;25.50;;;14.05;;
62523;SDS011;53689;56.878;60.672;2024-01-30T13:49:30;23.00;;;12.45;;
62523;SDS011;53689;56.878;60.672;2024-01-30T13:51:58;20.52;;;11.70;;
62523;SDS011;53689;56.878;60.672;2024-01-30T13:54:26;20.67;;;11.45;;
62523;SDS011;53689;56.878;60.672;2024-01-30T13:56:54;21.52;;;12.18;;
62523;SDS011;53689;56.878;60.672;2024-01-30T13:59:23;26.90;;;12.75;;
62523;SDS011;53689;56.878;60.672;2024-01-30T14:01:52;22.05;;;11.82;;
62523;SDS011;53689;56.878;60.672;2024-01-30T14:04:20;20.40;;;11.52;;
62523;SDS011;53689;56.878;60.672;2024-01-30T14:06:48;25.98;;;12.38;;
62523;SDS011;53689;56.878;60.672;2024-01-30T14:09:27;21.45;;;12.25;;
62523;SDS011;53689;56.878;60.672;2024-01-30T14:11:55;22.75;;;11.93;;
62523;SDS011;53689;56.878;60.672;2024-01-30T14:14:24;22.25;;;11.55;;
62523;SDS011;53689;56.878;60.672;2024-01-30T14:16:52;19.70;;;11.65;;
62523;SDS011;53689;56.878;60.672;2024-01-30T14:19:20;20.05;;;11.57;;
62523;SDS011;53689;56.878;60.672;2024-01-30T14:21:48;24.63;;;13.18;;
62523;SDS011;53689;56.878;60.672;2024-01-30T14:24:16;19.90;;;11.68;;
62523;SDS011;53689;56.878;60.672;2024-01-30T14:26:44;23.45;;;13.02;;
62523;SDS011;53689;56.878;60.672;2024-01-30T14:29:12;26.35;;;13.75;;
62523;SDS011;53689;56.878;60.672;2024-01-30T14:31:41;26.42;;;12.88;;
62523;SDS011;53689;56.878;60.672;2024-01-30T14:34:09;24.90;;;11.52;;